Terminal Aerodrome Forecast
Issued by NWS

Home | Current Version | Previous Version | Text Only | Print | Product List | Glossary On
Versions: 1 2 3 4 5 6 7 8 9 10 11 12 13
000
FTUS45 KPSR 191700
TAFIWA
TAF
KIWA 191720Z 1918/2018 19005KT P6SM VCSH SCT080 BKN120 BKN200
     FM192100 24007KT P6SM VCSH SCT080 SCT120 BKN200
     FM200500 13004KT P6SM FEW100 SCT250=

USA.gov is the U.S. government's official web portal to all federal, state and local government web resources and services.